createdAt,value
2018-09-04T00:01:46.229Z,63.30
2018-09-04T00:04:14.627Z,55.05
2018-09-04T00:06:43.070Z,61.10
2018-09-04T00:14:10.397Z,57.27
2018-09-04T00:16:38.817Z,57.60
2018-09-04T00:19:07.277Z,56.47
2018-09-04T00:21:35.654Z,57.27
2018-09-04T00:24:04.152Z,59.60
2018-09-04T00:26:32.534Z,56.73
2018-09-04T00:29:00.908Z,56.43
2018-09-04T00:31:29.319Z,60.83
2018-09-04T00:34:00.353Z,58.05
2018-09-04T00:36:28.845Z,56.80
2018-09-04T00:38:57.295Z,57.30
2018-09-04T00:41:25.835Z,56.37
2018-09-04T00:43:54.229Z,59.13
2018-09-04T00:46:23.170Z,53.90
2018-09-04T00:48:51.567Z,49.18
2018-09-04T00:51:19.948Z,60.93
2018-09-04T00:53:49.121Z,53.78
2018-09-04T00:56:17.545Z,57.60
2018-09-04T00:58:45.925Z,56.90
2018-09-04T01:01:14.291Z,52.97
2018-09-04T01:03:43.447Z,52.20
2018-09-04T01:06:11.840Z,47.90
2018-09-04T01:08:40.241Z,59.90
2018-09-04T01:11:09.652Z,55.90
2018-09-04T01:13:45.289Z,58.37
2018-09-04T01:16:14.567Z,57.10
2018-09-04T01:18:43.171Z,54.27
2018-09-04T01:21:12.056Z,60.10
2018-09-04T01:23:40.688Z,59.27
2018-09-04T01:26:09.087Z,58.33
2018-09-04T01:28:37.508Z,63.50
2018-09-04T01:31:06.929Z,60.23
2018-09-04T01:33:35.421Z,54.93
2018-09-04T01:36:03.854Z,53.40
2018-09-04T01:38:32.268Z,60.87
2018-09-04T01:41:00.721Z,60.03
2018-09-04T01:43:29.159Z,65.77
2018-09-04T01:45:57.542Z,58.93
2018-09-04T01:48:25.941Z,66.30
2018-09-04T01:50:54.397Z,64.73
2018-09-04T01:53:22.796Z,64.55
2018-09-04T01:55:51.248Z,64.40
2018-09-04T01:58:19.646Z,65.60
2018-09-04T02:00:48.030Z,69.33
2018-09-04T02:03:16.483Z,65.37
2018-09-04T02:05:45.019Z,67.73
2018-09-04T02:08:13.398Z,63.70
2018-09-04T02:10:41.792Z,64.72
2018-09-04T02:13:10.206Z,65.80
2018-09-04T02:15:38.605Z,68.17
2018-09-04T02:18:06.992Z,62.70
2018-09-04T02:20:35.431Z,60.88
2018-09-04T02:23:04.556Z,68.40
2018-09-04T02:25:33.004Z,60.80
2018-09-04T02:28:01.477Z,63.10
2018-09-04T02:30:29.852Z,67.05
2018-09-04T02:32:58.342Z,66.87
2018-09-04T02:35:26.691Z,63.83
2018-09-04T02:37:55.092Z,59.77
2018-09-04T02:40:23.510Z,66.30
2018-09-04T02:42:51.885Z,59.33
2018-09-04T02:45:20.320Z,56.13
2018-09-04T02:47:48.760Z,63.63
2018-09-04T02:50:17.156Z,71.33
2018-09-04T02:52:45.538Z,60.17
2018-09-04T02:55:13.895Z,65.97
2018-09-04T02:57:42.321Z,55.50
2018-09-04T03:00:11.143Z,58.60
2018-09-04T03:02:39.536Z,59.33
2018-09-04T03:05:08.014Z,59.80
2018-09-04T03:07:36.370Z,59.30
2018-09-04T03:10:05.351Z,54.20
2018-09-04T03:12:34.433Z,53.80
2018-09-04T03:15:03.187Z,56.43
2018-09-04T03:17:31.545Z,66.73
2018-09-04T03:20:00.062Z,59.93
2018-09-04T03:22:28.759Z,58.50
2018-09-04T03:24:57.308Z,59.67
2018-09-04T03:27:25.700Z,63.10
2018-09-04T03:29:54.084Z,67.63
2018-09-04T03:32:23.275Z,62.40
2018-09-04T03:34:51.675Z,57.50
2018-09-04T03:37:20.103Z,58.60
2018-09-04T03:39:48.507Z,73.12
2018-09-04T03:42:16.934Z,63.93
2018-09-04T03:44:45.487Z,70.80
2018-09-04T03:47:13.955Z,63.20
2018-09-04T03:49:43.217Z,63.90
2018-09-04T03:52:15.868Z,65.80
2018-09-04T03:54:44.360Z,70.50
2018-09-04T03:57:13.542Z,69.23
2018-09-04T03:59:41.910Z,65.50
2018-09-04T04:02:10.331Z,69.77
2018-09-04T04:04:41.012Z,59.53
2018-09-04T04:07:09.490Z,64.55
2018-09-04T04:09:37.904Z,66.10
2018-09-04T04:12:06.447Z,63.47
2018-09-04T04:14:34.718Z,61.80
2018-09-04T04:17:03.119Z,62.47
2018-09-04T04:19:32.532Z,65.07
2018-09-04T04:22:00.879Z,58.83
2018-09-04T04:24:29.284Z,59.85
2018-09-04T04:26:58.065Z,47.80
2018-09-04T04:29:26.483Z,52.87
2018-09-04T04:31:54.897Z,63.77
2018-09-04T04:34:23.519Z,51.97
2018-09-04T04:36:51.891Z,52.10
2018-09-04T04:39:20.306Z,58.13
2018-09-04T04:41:48.957Z,61.03
2018-09-04T04:44:18.012Z,62.75
2018-09-04T04:46:47.803Z,55.23
2018-09-04T04:49:16.205Z,58.87
2018-09-04T04:51:45.540Z,61.55
2018-09-04T04:54:14.122Z,61.63
2018-09-04T04:56:42.576Z,60.03
2018-09-04T04:59:11.145Z,64.00
2018-09-04T05:01:39.892Z,60.55
2018-09-04T05:04:08.584Z,59.67
2018-09-04T05:06:37.885Z,56.40
2018-09-04T05:09:09.006Z,52.57
2018-09-04T05:11:37.939Z,62.17
2018-09-04T05:14:06.744Z,59.20
2018-09-04T05:16:35.148Z,56.67
2018-09-04T05:19:04.103Z,56.13
2018-09-04T05:21:32.558Z,63.20
2018-09-04T05:24:01.010Z,61.73
2018-09-04T05:26:29.541Z,53.60
2018-09-04T05:28:57.996Z,51.40
2018-09-04T05:31:27.033Z,55.65
2018-09-04T05:33:55.659Z,50.20
2018-09-04T05:36:24.451Z,55.80
2018-09-04T05:38:52.838Z,52.37
2018-09-04T05:41:23.591Z,59.80
2018-09-04T05:43:55.016Z,63.57
2018-09-04T05:46:42.655Z,53.20
2018-09-04T05:49:12.028Z,51.57
2018-09-04T05:51:40.634Z,60.55
2018-09-04T05:54:09.204Z,61.30
2018-09-04T05:56:38.585Z,55.83
2018-09-04T05:59:07.095Z,59.70
2018-09-04T06:01:35.523Z,55.35
2018-09-04T06:04:04.529Z,59.75
2018-09-04T06:06:33.024Z,56.57
2018-09-04T06:09:01.516Z,55.67
2018-09-04T06:11:31.354Z,53.00
2018-09-04T06:13:59.923Z,57.03
2018-09-04T06:16:28.717Z,50.30
2018-09-04T06:18:57.506Z,47.40
2018-09-04T06:21:25.901Z,51.25
2018-09-04T06:23:56.696Z,46.13
2018-09-04T06:26:25.512Z,45.23
2018-09-04T06:28:54.430Z,44.77
2018-09-04T06:31:23.004Z,39.73
2018-09-04T06:33:51.776Z,42.00
2018-09-04T06:36:20.381Z,47.08
2018-09-04T06:38:48.970Z,45.43
2018-09-04T06:41:17.796Z,41.40
2018-09-04T06:43:46.653Z,43.70
2018-09-04T06:46:15.102Z,37.17
2018-09-04T06:48:43.509Z,45.40
2018-09-04T06:51:12.575Z,49.17
2018-09-04T06:53:41.039Z,52.33
2018-09-04T06:56:09.482Z,54.10
2018-09-04T06:58:37.989Z,55.90
2018-09-04T07:01:06.376Z,54.63
2018-09-04T07:03:34.840Z,58.40
2018-09-04T07:06:03.389Z,52.88
2018-09-04T07:08:31.786Z,56.90
2018-09-04T07:11:00.175Z,58.40
2018-09-04T07:13:28.687Z,57.93
2018-09-04T07:15:57.996Z,50.08
2018-09-04T07:18:26.458Z,49.73
2018-09-04T07:20:54.926Z,51.30
2018-09-04T07:23:23.364Z,52.73
2018-09-04T07:25:51.863Z,51.73
2018-09-04T07:28:20.371Z,45.60
2018-09-04T07:30:48.868Z,43.83
2018-09-04T07:33:17.285Z,42.83
2018-09-04T07:35:45.723Z,46.63
2018-09-04T07:38:14.097Z,42.23
2018-09-04T07:40:42.776Z,39.18
2018-09-04T07:43:11.180Z,41.03
2018-09-04T07:45:40.392Z,34.30
2018-09-04T07:48:08.929Z,43.98
2018-09-04T07:50:37.303Z,40.67
2018-09-04T07:53:05.786Z,35.83
2018-09-04T07:55:34.228Z,34.10
2018-09-04T07:58:02.613Z,34.85
2018-09-04T08:00:31.054Z,31.20
2018-09-04T08:02:59.741Z,37.83
2018-09-04T08:05:30.155Z,33.60
2018-09-04T08:07:58.655Z,34.27
2018-09-04T08:10:27.131Z,33.10
2018-09-04T08:12:55.517Z,27.85
2018-09-04T08:15:23.967Z,30.82
2018-09-04T08:17:52.338Z,35.30
2018-09-04T08:20:20.752Z,30.87
2018-09-04T08:22:49.140Z,27.35
2018-09-04T08:25:17.519Z,23.47
2018-09-04T08:27:46.009Z,26.47
2018-09-04T08:30:14.480Z,21.20
2018-09-04T08:32:42.919Z,25.93
2018-09-04T08:35:11.246Z,25.43
2018-09-04T08:37:39.680Z,27.13
2018-09-04T08:40:08.130Z,30.80
2018-09-04T08:42:36.516Z,29.03
2018-09-04T08:45:04.953Z,31.93
2018-09-04T08:47:33.370Z,28.73
2018-09-04T08:50:01.790Z,28.42
2018-09-04T08:52:30.235Z,27.40
2018-09-04T08:54:58.696Z,24.67
2018-09-04T08:57:27.124Z,25.20
2018-09-04T08:59:55.606Z,30.27
2018-09-04T09:02:24.005Z,24.00
2018-09-04T09:04:52.475Z,25.87
2018-09-04T09:07:20.853Z,32.53
2018-09-04T09:09:49.286Z,32.27
2018-09-04T09:12:17.649Z,28.55
2018-09-04T09:14:46.016Z,26.27
2018-09-04T09:17:14.410Z,28.03
2018-09-04T09:19:42.829Z,25.45
2018-09-04T09:22:11.212Z,25.53
2018-09-04T09:24:39.633Z,20.97
2018-09-04T09:27:08.031Z,26.93
2018-09-04T09:29:36.489Z,23.85
2018-09-04T09:32:05.749Z,22.30
2018-09-04T09:34:34.178Z,19.53
2018-09-04T09:37:02.667Z,22.10
2018-09-04T09:39:31.099Z,24.77
2018-09-04T09:41:59.536Z,22.30
2018-09-04T09:44:27.984Z,18.87
2018-09-04T09:47:03.460Z,21.63
2018-09-04T09:49:32.672Z,24.67
2018-09-04T09:52:01.766Z,19.27
2018-09-04T09:54:30.631Z,29.37
2018-09-04T09:56:59.080Z,23.20
2018-09-04T09:59:34.090Z,22.67
2018-09-04T10:02:07.605Z,20.93
2018-09-04T10:04:35.976Z,19.55
2018-09-04T10:07:04.521Z,20.37
2018-09-04T10:09:33.067Z,21.40
2018-09-04T10:12:01.555Z,16.53
2018-09-04T10:14:30.063Z,16.37
2018-09-04T10:16:58.608Z,17.47
2018-09-04T10:19:27.013Z,15.37
2018-09-04T10:21:55.497Z,21.10
2018-09-04T10:24:23.960Z,23.30
2018-09-04T10:26:52.409Z,18.87
2018-09-04T10:29:20.806Z,18.43
2018-09-04T10:31:49.184Z,16.67
2018-09-04T10:34:17.734Z,17.12
2018-09-04T10:36:46.833Z,14.40
2018-09-04T10:39:20.717Z,14.33
2018-09-04T10:41:49.086Z,21.53
2018-09-04T10:44:17.593Z,16.43
2018-09-04T10:46:45.964Z,17.25
2018-09-04T10:49:14.409Z,16.00
2018-09-04T10:51:43.573Z,16.43
2018-09-04T10:54:11.980Z,13.73
2018-09-04T10:56:40.485Z,15.03
2018-09-04T10:59:09.503Z,12.53
2018-09-04T11:01:37.933Z,13.93
2018-09-04T11:04:06.352Z,13.27
2018-09-04T11:06:34.778Z,17.00
2018-09-04T11:09:03.254Z,14.00
2018-09-04T11:11:31.628Z,12.50
2018-09-04T11:14:00.028Z,13.87
2018-09-04T11:16:28.416Z,14.00
2018-09-04T11:18:56.888Z,16.70
2018-09-04T11:21:25.301Z,12.88
2018-09-04T11:23:53.693Z,14.37
2018-09-04T11:26:22.582Z,12.60
2018-09-04T11:28:54.105Z,15.30
2018-09-04T11:31:22.573Z,25.97
2018-09-04T11:33:52.028Z,14.33
2018-09-04T11:36:20.421Z,13.70
2018-09-04T11:38:48.856Z,14.47
2018-09-04T11:41:17.339Z,13.88
2018-09-04T11:43:45.736Z,13.47
2018-09-04T11:46:14.091Z,14.27
2018-09-04T11:48:42.540Z,14.00
2018-09-04T11:51:11.887Z,13.40
2018-09-04T11:53:40.621Z,13.30
2018-09-04T11:56:09.000Z,13.63
2018-09-04T11:58:37.388Z,13.73
2018-09-04T12:01:12.140Z,10.90
2018-09-04T12:03:40.766Z,12.70
2018-09-04T12:06:09.184Z,12.13
2018-09-04T12:08:37.579Z,11.93
2018-09-04T12:11:06.027Z,15.30
2018-09-04T12:13:34.385Z,11.70
2018-09-04T12:16:03.338Z,13.77
2018-09-04T12:18:31.777Z,12.60
2018-09-04T12:21:03.423Z,13.60
2018-09-04T12:23:31.770Z,13.37
2018-09-04T12:26:03.247Z,13.90
2018-09-04T12:28:31.748Z,11.87
2018-09-04T12:31:00.633Z,12.73
2018-09-04T12:33:29.189Z,14.40
2018-09-04T12:35:57.620Z,14.68
2018-09-04T12:38:27.652Z,20.03
2018-09-04T12:40:56.062Z,12.57
2018-09-04T12:43:24.567Z,11.80
2018-09-04T12:45:54.274Z,13.33
2018-09-04T12:48:24.840Z,12.00
2018-09-04T12:50:54.117Z,10.50
2018-09-04T12:53:22.991Z,14.13
2018-09-04T12:55:52.156Z,11.73
2018-09-04T12:58:20.600Z,11.67
2018-09-04T13:00:51.130Z,11.60
2018-09-04T13:03:20.950Z,11.77
2018-09-04T13:05:49.382Z,11.57
2018-09-04T13:08:18.848Z,10.13
2018-09-04T13:10:47.293Z,10.10
2018-09-04T13:13:15.739Z,9.67
2018-09-04T13:15:46.233Z,10.95
2018-09-04T13:18:14.723Z,11.03
2018-09-04T13:20:43.282Z,10.83
2018-09-04T13:23:12.113Z,12.53
2018-09-04T13:25:40.591Z,11.87
2018-09-04T13:28:09.140Z,12.87
2018-09-04T13:30:38.156Z,12.03
2018-09-04T13:33:06.601Z,12.37
2018-09-04T13:35:35.588Z,13.60
2018-09-04T13:38:04.460Z,12.57
2018-09-04T13:40:32.891Z,12.60
2018-09-04T13:43:01.333Z,13.28
2018-09-04T13:45:29.714Z,12.90
2018-09-04T13:47:58.798Z,11.90
2018-09-04T13:50:27.252Z,13.53
2018-09-04T13:52:55.884Z,12.50
2018-09-04T13:55:24.329Z,13.00
2018-09-04T13:57:52.744Z,12.23
2018-09-04T14:00:21.252Z,11.93
2018-09-04T14:02:50.557Z,16.10
2018-09-04T14:05:18.997Z,11.43
2018-09-04T14:07:47.377Z,14.37
2018-09-04T14:10:15.771Z,12.20
2018-09-04T14:12:44.211Z,13.10
2018-09-04T14:15:12.675Z,11.93
2018-09-04T14:17:41.100Z,15.70
2018-09-04T14:20:09.588Z,13.93
2018-09-04T14:22:38.148Z,12.20
2018-09-04T14:25:06.502Z,12.60
2018-09-04T14:27:34.965Z,12.63
2018-09-04T14:30:17.321Z,12.50
2018-09-04T14:32:32.769Z,11.77
2018-09-04T14:35:01.260Z,12.00
2018-09-04T14:37:29.702Z,12.03
2018-09-04T14:39:58.234Z,13.20
2018-09-04T14:42:26.723Z,13.25
2018-09-04T14:44:55.237Z,11.90
2018-09-04T14:47:23.703Z,15.60
2018-09-04T14:49:52.182Z,12.35
2018-09-04T14:52:20.695Z,12.50
2018-09-04T14:54:49.212Z,11.53
2018-09-04T14:57:17.673Z,18.73
2018-09-04T14:59:46.162Z,11.17
2018-09-04T15:02:14.527Z,13.50
2018-09-04T15:04:42.955Z,12.10
2018-09-04T15:07:11.440Z,11.48
2018-09-04T15:09:39.895Z,12.53
2018-09-04T15:12:08.637Z,12.20
2018-09-04T15:14:37.436Z,11.47
2018-09-04T15:17:07.174Z,14.63
2018-09-04T15:19:35.707Z,13.03
2018-09-04T15:22:04.214Z,12.13
2018-09-04T15:24:32.639Z,13.32
2018-09-04T15:27:01.388Z,12.50
2018-09-04T15:29:30.652Z,14.50
2018-09-04T15:31:59.370Z,12.07
2018-09-04T15:34:27.906Z,13.40
2018-09-04T15:36:56.425Z,13.23
2018-09-04T15:39:25.468Z,12.13
2018-09-04T15:41:53.913Z,12.33
2018-09-04T15:44:22.349Z,13.30
2018-09-04T15:46:51.071Z,13.57
2018-09-04T15:49:25.777Z,13.00
2018-09-04T15:51:54.198Z,14.93
2018-09-04T15:54:22.636Z,13.40
2018-09-04T15:56:51.171Z,13.70
2018-09-04T15:59:19.552Z,11.93
2018-09-04T16:01:47.953Z,12.67
2018-09-04T16:04:16.415Z,11.40
2018-09-04T16:06:45.480Z,12.47
2018-09-04T16:09:13.901Z,12.90
2018-09-04T16:11:42.640Z,13.33
2018-09-04T16:14:11.068Z,12.58
2018-09-04T16:16:39.487Z,12.87
2018-09-04T16:19:07.910Z,13.10
2018-09-04T16:21:36.330Z,13.03
2018-09-04T16:24:04.767Z,12.20
2018-09-04T16:26:33.209Z,9.47
2018-09-04T16:29:01.579Z,13.80
2018-09-04T16:31:29.959Z,10.20
2018-09-04T16:34:00.815Z,9.00
2018-09-04T16:36:30.531Z,8.63
2018-09-04T16:38:58.972Z,13.60
2018-09-04T16:41:27.485Z,8.67
2018-09-04T16:43:55.953Z,11.13
2018-09-04T16:46:24.535Z,10.37
2018-09-04T16:48:53.637Z,11.15
2018-09-04T16:51:22.084Z,8.53
2018-09-04T16:53:50.455Z,9.43
2018-09-04T16:56:18.895Z,9.83
2018-09-04T16:58:47.347Z,9.70
2018-09-04T17:01:15.761Z,8.33
2018-09-04T17:03:44.180Z,11.65
2018-09-04T17:06:12.635Z,9.50
2018-09-04T17:08:41.495Z,8.40
2018-09-04T17:11:09.977Z,8.53
2018-09-04T17:13:38.497Z,11.00
2018-09-04T17:16:06.907Z,6.50
2018-09-04T17:18:35.404Z,12.90
2018-09-04T17:21:04.454Z,7.00
2018-09-04T17:23:32.792Z,7.33
2018-09-04T17:26:01.289Z,8.77
2018-09-04T17:28:29.624Z,8.90
2018-09-04T17:30:58.021Z,8.63
2018-09-04T17:33:26.408Z,12.43
2018-09-04T17:35:54.839Z,9.73
2018-09-04T17:38:23.316Z,7.70
2018-09-04T17:40:51.710Z,11.87
2018-09-04T17:43:21.118Z,8.30
2018-09-04T17:45:49.782Z,7.00
2018-09-04T17:48:18.731Z,7.07
2018-09-04T17:50:47.255Z,6.92
2018-09-04T17:53:15.682Z,7.10
2018-09-04T17:55:44.152Z,6.50
2018-09-04T17:58:12.599Z,9.13
2018-09-04T18:00:41.097Z,9.20
2018-09-04T18:03:09.490Z,9.80
2018-09-04T18:05:38.472Z,11.07
2018-09-04T18:08:06.910Z,9.93
2018-09-04T18:10:35.300Z,9.00
2018-09-04T18:13:03.713Z,9.80
2018-09-04T18:15:32.939Z,9.00
2018-09-04T18:18:01.421Z,9.00
2018-09-04T18:20:29.849Z,10.10
2018-09-04T18:22:58.337Z,9.97
2018-09-04T18:25:27.223Z,9.58
2018-09-04T18:27:55.668Z,9.57
2018-09-04T18:30:24.068Z,10.40
2018-09-04T18:32:52.687Z,10.13
2018-09-04T18:35:21.551Z,10.90
2018-09-04T18:37:49.931Z,10.07
2018-09-04T18:40:18.389Z,11.03
2018-09-04T18:42:46.769Z,9.63
2018-09-04T18:45:26.364Z,11.30
2018-09-04T18:47:55.084Z,12.27
2018-09-04T18:50:23.462Z,11.40
2018-09-04T18:52:51.934Z,13.30
2018-09-04T18:55:20.482Z,12.25
2018-09-04T18:57:49.073Z,12.67
2018-09-04T19:00:18.442Z,12.00
2018-09-04T19:02:47.723Z,13.35
2018-09-04T19:05:23.895Z,12.07
2018-09-04T19:07:52.925Z,11.67
2018-09-04T19:10:21.387Z,11.33
2018-09-04T19:12:54.213Z,12.63
2018-09-04T19:15:22.807Z,11.87
2018-09-04T19:17:51.505Z,12.55
2018-09-04T19:20:21.485Z,12.27
2018-09-04T19:22:53.557Z,11.50
2018-09-04T19:25:22.061Z,12.63
2018-09-04T19:28:12.984Z,11.43
2018-09-04T19:30:44.412Z,11.75
2018-09-04T19:33:12.890Z,12.90
2018-09-04T19:35:41.308Z,13.87
2018-09-04T19:38:09.788Z,13.83
2018-09-04T19:40:38.210Z,13.50
2018-09-04T19:43:06.662Z,14.40
2018-09-04T19:45:35.157Z,13.97
2018-09-04T19:48:03.629Z,15.73
2018-09-04T19:50:32.098Z,15.13
2018-09-04T19:53:00.521Z,13.30
2018-09-04T19:55:29.007Z,14.90
2018-09-04T19:57:57.422Z,14.73
2018-09-04T20:00:25.951Z,16.23
2018-09-04T20:02:54.400Z,14.90
2018-09-04T20:05:22.832Z,13.97
2018-09-04T20:07:51.279Z,13.73
2018-09-04T20:10:19.709Z,14.10
2018-09-04T20:12:48.169Z,16.67
2018-09-04T20:15:16.618Z,20.00
2018-09-04T20:17:45.036Z,14.17
2018-09-04T20:20:13.555Z,16.05
2018-09-04T20:22:42.026Z,15.57
2018-09-04T20:25:10.457Z,15.40
2018-09-04T20:27:38.976Z,17.63
2018-09-04T20:30:07.443Z,20.07
2018-09-04T20:32:35.980Z,16.70
2018-09-04T20:35:04.358Z,16.90
2018-09-04T20:37:32.808Z,15.10
2018-09-04T20:40:01.189Z,17.07
2018-09-04T20:42:29.569Z,14.93
2018-09-04T20:44:58.056Z,17.83
2018-09-04T20:47:26.516Z,16.52
2018-09-04T20:49:54.895Z,16.10
2018-09-04T20:52:23.311Z,17.17
2018-09-04T20:54:51.665Z,17.70
2018-09-04T20:57:22.956Z,16.30
2018-09-04T21:00:04.629Z,16.43
2018-09-04T21:02:44.236Z,17.47
2018-09-04T21:05:24.086Z,17.32
2018-09-04T21:08:34.287Z,17.90
2018-09-04T21:11:02.765Z,18.30
2018-09-04T21:13:31.190Z,22.80
2018-09-04T21:16:00.552Z,20.90
2018-09-04T21:18:29.330Z,19.40
2018-09-04T21:20:58.041Z,19.50
2018-09-04T21:23:26.731Z,22.00
2018-09-04T21:25:55.500Z,20.53
2018-09-04T21:28:30.475Z,20.67
2018-09-04T21:30:59.054Z,19.90
2018-09-04T21:33:27.616Z,18.92
2018-09-04T21:35:56.183Z,20.23
2018-09-04T21:38:24.954Z,19.98
2018-09-04T21:40:53.578Z,17.25
2018-09-04T21:43:22.605Z,18.50
2018-09-04T21:45:51.197Z,25.40
2018-09-04T21:48:19.869Z,21.40
2018-09-04T21:50:48.498Z,18.67
2018-09-04T21:53:17.600Z,22.70
2018-09-04T21:55:46.029Z,18.20
2018-09-04T21:58:14.460Z,19.05
2018-09-04T22:00:43.289Z,19.13
2018-09-04T22:03:16.068Z,27.27
2018-09-04T22:05:44.903Z,19.17
2018-09-04T22:08:13.272Z,20.23
2018-09-04T22:10:42.552Z,18.40
2018-09-04T22:13:11.100Z,20.27
2018-09-04T22:15:39.764Z,21.53
2018-09-04T22:18:08.153Z,18.50
2018-09-04T22:20:38.324Z,21.12
2018-09-04T22:23:08.804Z,21.90
2018-09-04T22:25:37.296Z,23.80
2018-09-04T22:28:10.116Z,22.17
2018-09-04T22:30:39.740Z,23.33
2018-09-04T22:33:08.161Z,24.00
2018-09-04T22:35:38.377Z,23.98
2018-09-04T22:38:07.005Z,20.33
2018-09-04T22:40:35.489Z,21.83
2018-09-04T22:43:03.949Z,23.70
2018-09-04T22:45:32.442Z,26.83
2018-09-04T22:48:00.961Z,21.27
2018-09-04T22:50:34.645Z,23.67
2018-09-04T22:53:03.161Z,30.20
2018-09-04T22:55:31.544Z,25.90
2018-09-04T22:58:00.176Z,22.22
2018-09-04T23:00:28.689Z,21.05
2018-09-04T23:02:57.063Z,24.50
2018-09-04T23:05:25.576Z,25.37
2018-09-04T23:07:53.981Z,22.90
2018-09-04T23:10:22.414Z,23.00
2018-09-04T23:12:50.860Z,24.47
2018-09-04T23:15:19.577Z,22.80
2018-09-04T23:17:48.588Z,24.52
2018-09-04T23:20:17.006Z,22.03
2018-09-04T23:22:45.432Z,23.33
2018-09-04T23:25:13.799Z,21.75
2018-09-04T23:27:42.173Z,21.13
2018-09-04T23:30:10.836Z,22.97
2018-09-04T23:32:40.041Z,21.87
2018-09-04T23:35:08.591Z,21.33
2018-09-04T23:37:37.000Z,21.20
2018-09-04T23:40:05.450Z,21.43
2018-09-04T23:42:34.366Z,22.30
2018-09-04T23:45:04.611Z,22.80
2018-09-04T23:47:35.943Z,23.27
2018-09-04T23:50:06.573Z,22.20
2018-09-04T23:52:34.969Z,20.67
2018-09-04T23:55:03.704Z,22.00
2018-09-04T23:57:32.078Z,23.57
